Time;durP1;ratioP1;P1;durP2;ratioP2;P2;SDS_P1;SDS_P2;PMS_P1;PMS_P2;Temp;Humidity;BMP_temperature;BMP_pressure;BME280_temperature;BME280_humidity;BME280_pressure;Samples;Min_cycle;Max_cycle;Signal;HPM_P1;HPM_P2
2022/06/06 00:01:57;;;;;;;5.40;2.13;;;;;;;;;;5068170;28;20047;-84
2022/06/06 00:04:24;;;;;;;4.90;2.03;;;;;;;;;;5086429;28;20032;-84
2022/06/06 00:06:52;;;;;;;4.90;1.95;;;;;;;;;;5076992;28;20052;-84
2022/06/06 00:09:18;;;;;;;4.32;1.92;;;;;;;;;;5069815;28;20685;-84
2022/06/06 00:11:44;;;;;;;5.78;2.63;;;;;;;;;;5075537;28;20388;-84
2022/06/06 00:14:11;;;;;;;4.93;2.35;;;;;;;;;;5078121;28;20175;-84
2022/06/06 00:16:37;;;;;;;5.40;2.08;;;;;;;;;;5073658;28;20013;-84
2022/06/06 00:19:04;;;;;;;7.22;2.45;;;;;;;;;;5063654;28;20325;-84
2022/06/06 00:21:30;;;;;;;5.53;2.80;;;;;;;;;;5062163;28;20025;-85
2022/06/06 00:23:59;;;;;;;5.00;2.97;;;;;;;;;;5061695;28;20480;-83
2022/06/06 00:26:25;;;;;;;5.32;3.00;;;;;;;;;;5070858;28;20092;-84
2022/06/06 00:28:51;;;;;;;6.38;3.05;;;;;;;;;;5069516;28;20029;-84
2022/06/06 00:36:47;;;;;;;5.47;2.55;;;;;;;;;;5069966;28;20518;-84
2022/06/06 00:39:13;;;;;;;4.60;2.60;;;;;;;;;;5062485;28;20108;-84
2022/06/06 00:41:41;;;;;;;6.55;3.13;;;;;;;;;;5061031;28;20087;-84
2022/06/06 00:44:08;;;;;;;5.70;2.85;;;;;;;;;;5078800;28;20032;-84
2022/06/06 00:46:35;;;;;;;5.85;2.92;;;;;;;;;;5072053;28;20040;-84
2022/06/06 00:49:02;;;;;;;6.20;2.50;;;;;;;;;;5062207;28;20036;-84
2022/06/06 00:51:30;;;;;;;19.52;3.88;;;;;;;;;;5063372;28;20055;-84
2022/06/06 00:53:56;;;;;;;6.22;2.65;;;;;;;;;;5064106;28;20017;-84
2022/06/06 00:56:31;;;;;;;5.30;2.45;;;;;;;;;;5073642;28;20063;-84
2022/06/06 00:59:00;;;;;;;6.47;2.92;;;;;;;;;;5081666;28;20078;-84
2022/06/06 01:01:27;;;;;;;6.22;2.72;;;;;;;;;;5079388;28;20044;-84
2022/06/06 01:03:55;;;;;;;6.03;2.50;;;;;;;;;;5084919;28;20017;-84
2022/06/06 01:06:22;;;;;;;6.57;2.65;;;;;;;;;;5076924;28;20029;-84
2022/06/06 01:08:50;;;;;;;5.30;2.35;;;;;;;;;;5070109;28;20021;-84
2022/06/06 01:11:16;;;;;;;5.53;2.60;;;;;;;;;;5076452;28;20123;-84
2022/06/06 01:13:43;;;;;;;5.82;2.97;;;;;;;;;;5073055;28;20024;-84
2022/06/06 01:16:18;;;;;;;6.15;3.45;;;;;;;;;;5066123;28;20025;-84
2022/06/06 01:18:50;;;;;;;5.35;2.42;;;;;;;;;;5069058;28;20017;-84
2022/06/06 01:21:35;;;;;;;5.55;2.47;;;;;;;;;;5066886;28;20032;-83
2022/06/06 01:24:11;;;;;;;5.75;2.60;;;;;;;;;;5078377;28;20082;-84
2022/06/06 01:26:37;;;;;;;4.93;2.50;;;;;;;;;;5077510;28;20488;-84
2022/06/06 01:29:03;;;;;;;6.03;2.72;;;;;;;;;;5083953;28;20042;-83
2022/06/06 01:31:49;;;;;;;5.95;2.42;;;;;;;;;;5082273;28;20021;-84
2022/06/06 01:34:24;;;;;;;6.03;3.00;;;;;;;;;;5080930;28;20056;-84
2022/06/06 01:36:51;;;;;;;16.30;3.38;;;;;;;;;;5076942;28;20098;-84
2022/06/06 01:39:17;;;;;;;5.80;3.10;;;;;;;;;;5081025;28;20032;-83
2022/06/06 01:41:52;;;;;;;6.20;2.63;;;;;;;;;;5081928;28;20086;-83
2022/06/06 01:44:34;;;;;;;7.18;2.63;;;;;;;;;;5082597;28;20033;-83
2022/06/06 01:47:00;;;;;;;8.10;3.10;;;;;;;;;;5077385;28;20099;-83
2022/06/06 01:49:27;;;;;;;6.00;3.05;;;;;;;;;;5063442;28;20033;-84
2022/06/06 01:52:00;;;;;;;4.65;2.50;;;;;;;;;;5064400;28;20040;-83
2022/06/06 01:54:27;;;;;;;4.90;3.00;;;;;;;;;;5064836;28;20033;-83
2022/06/06 01:56:53;;;;;;;5.50;2.60;;;;;;;;;;5076859;28;20498;-83
2022/06/06 01:59:19;;;;;;;5.68;2.70;;;;;;;;;;5073740;28;20019;-83
2022/06/06 02:01:46;;;;;;;5.38;2.60;;;;;;;;;;5070513;28;20096;-84
2022/06/06 02:04:12;;;;;;;4.60;2.65;;;;;;;;;;5083760;28;20043;-83
2022/06/06 02:06:41;;;;;;;4.70;2.50;;;;;;;;;;5083466;28;20028;-83
2022/06/06 02:09:08;;;;;;;5.43;2.65;;;;;;;;;;5082208;28;20511;-83
2022/06/06 02:11:34;;;;;;;6.97;2.75;;;;;;;;;;5067611;28;20037;-83
2022/06/06 02:14:01;;;;;;;5.72;2.60;;;;;;;;;;5067466;28;20056;-83
2022/06/06 02:16:27;;;;;;;5.50;3.08;;;;;;;;;;5082057;28;20031;-83
2022/06/06 02:18:53;;;;;;;5.32;3.00;;;;;;;;;;5083079;28;20087;-83
2022/06/06 02:21:19;;;;;;;5.75;3.00;;;;;;;;;;5073007;28;20029;-83
2022/06/06 02:23:45;;;;;;;5.32;2.88;;;;;;;;;;5062925;28;20029;-83
2022/06/06 02:26:11;;;;;;;7.30;3.15;;;;;;;;;;5061753;28;20017;-83
2022/06/06 02:28:38;;;;;;;6.10;2.83;;;;;;;;;;5068659;28;20427;-83
2022/06/06 02:31:04;;;;;;;6.82;3.03;;;;;;;;;;5072714;28;20045;-83
2022/06/06 02:33:30;;;;;;;5.40;2.97;;;;;;;;;;5061112;28;20048;-83
2022/06/06 02:36:00;;;;;;;5.07;2.85;;;;;;;;;;5062305;28;20025;-83
2022/06/06 02:38:27;;;;;;;6.00;2.90;;;;;;;;;;5080172;28;20024;-83
2022/06/06 02:40:53;;;;;;;5.70;3.17;;;;;;;;;;5079164;28;20054;-83
2022/06/06 02:43:21;;;;;;;6.25;2.83;;;;;;;;;;5079980;28;20051;-83
2022/06/06 02:45:48;;;;;;;6.43;3.30;;;;;;;;;;5081413;28;20085;-83
2022/06/06 02:48:15;;;;;;;5.22;2.42;;;;;;;;;;5070907;28;20098;-83
2022/06/06 02:50:42;;;;;;;6.68;2.70;;;;;;;;;;5062694;28;20036;-83
2022/06/06 02:53:08;;;;;;;5.20;2.85;;;;;;;;;;5062705;28;20100;-84
2022/06/06 02:55:35;;;;;;;6.78;3.00;;;;;;;;;;5064182;28;20028;-83
2022/06/06 02:58:01;;;;;;;4.78;2.75;;;;;;;;;;5072930;28;20036;-83
2022/06/06 03:00:29;;;;;;;5.22;2.90;;;;;;;;;;5063972;28;20029;-83
2022/06/06 03:02:55;;;;;;;5.65;2.90;;;;;;;;;;5068273;28;20607;-83
2022/06/06 03:05:21;;;;;;;5.57;2.70;;;;;;;;;;5059727;28;20037;-83
2022/06/06 03:08:00;;;;;;;5.18;3.25;;;;;;;;;;5061249;28;20025;-83
2022/06/06 03:10:27;;;;;;;6.05;2.80;;;;;;;;;;5061097;28;20032;-83
2022/06/06 03:13:12;;;;;;;5.15;2.65;;;;;;;;;;5070814;28;20395;-83
2022/06/06 03:20:46;;;;;;;5.53;3.40;;;;;;;;;;5068838;28;20020;-83
2022/06/06 03:21:23;;;;;;;6.43;3.40;;;;;;;;;;5077018;28;20039;-83
2022/06/06 03:24:08;;;;;;;6.07;3.13;;;;;;;;;;5079798;28;20025;-83
2022/06/06 03:26:53;;;;;;;4.82;2.63;;;;;;;;;;5070982;28;20056;-83
2022/06/06 03:29:35;;;;;;;5.95;3.00;;;;;;;;;;5068540;28;20048;-83
2022/06/06 03:32:01;;;;;;;;;;;;;;;;;;5073281;28;20059;-83
2022/06/06 03:34:30;;;;;;;5.32;2.78;;;;;;;;;;5077291;28;20576;-83
2022/06/06 03:37:23;;;;;;;5.07;3.05;;;;;;;;;;5079070;28;20035;-83
2022/06/06 03:40:01;;;;;;;6.28;3.10;;;;;;;;;;5072750;28;20447;-83
2022/06/06 03:42:44;;;;;;;6.50;3.20;;;;;;;;;;5059944;28;20111;-83
2022/06/06 03:45:24;;;;;;;5.68;3.17;;;;;;;;;;5068437;28;20024;-83
2022/06/06 03:47:53;;;;;;;5.18;2.90;;;;;;;;;;5082952;28;20029;-83
2022/06/06 03:50:19;;;;;;;5.43;3.20;;;;;;;;;;5064093;28;20499;-83
2022/06/06 03:52:48;;;;;;;5.65;3.08;;;;;;;;;;5070993;28;20024;-83
2022/06/06 03:55:27;;;;;;;6.93;3.72;;;;;;;;;;5072590;28;20025;-83
2022/06/06 03:57:54;;;;;;;5.00;2.83;;;;;;;;;;5062201;28;20024;-83
2022/06/06 04:00:21;;;;;;;5.85;2.97;;;;;;;;;;5063656;28;20033;-83
2022/06/06 04:02:48;;;;;;;6.15;3.03;;;;;;;;;;5081591;28;20035;-82
2022/06/06 04:05:16;;;;;;;5.88;2.60;;;;;;;;;;5080645;28;20373;-83
2022/06/06 04:07:42;;;;;;;5.50;2.28;;;;;;;;;;5061970;28;20110;-83
2022/06/06 04:10:09;;;;;;;5.28;2.20;;;;;;;;;;5071487;28;20032;-83
2022/06/06 04:12:38;;;;;;;4.20;2.03;;;;;;;;;;5077058;28;20021;-83
2022/06/06 04:15:07;;;;;;;6.10;2.53;;;;;;;;;;5062371;28;20025;-83
2022/06/06 04:17:50;;;;;;;5.32;2.13;;;;;;;;;;5060712;28;20385;-83
2022/06/06 04:20:30;;;;;;;5.72;2.30;;;;;;;;;;5076001;28;20040;-82
2022/06/06 04:23:29;;;;;;;5.93;2.20;;;;;;;;;;5079058;28;20033;-82
2022/06/06 04:26:04;;;;;;;4.95;2.33;;;;;;;;;;5037130;28;20643;-82
2022/06/06 04:28:38;;;;;;;6.15;2.38;;;;;;;;;;5029044;28;20064;-82
2022/06/06 04:31:04;;;;;;;5.18;2.83;;;;;;;;;;5035816;28;20388;-82
2022/06/06 04:33:42;;;;;;;5.20;2.97;;;;;;;;;;5028973;28;20041;-82
2022/06/06 04:36:26;;;;;;;5.63;2.85;;;;;;;;;;5036418;28;20072;-83
2022/06/06 04:39:08;;;;;;;7.82;2.95;;;;;;;;;;5035620;28;20022;-82
2022/06/06 04:41:43;;;;;;;5.35;2.72;;;;;;;;;;5037493;28;20037;-83
2022/06/06 04:44:09;;;;;;;4.93;2.70;;;;;;;;;;5020561;28;20594;-83
2022/06/06 04:46:42;;;;;;;6.32;3.15;;;;;;;;;;5035303;28;20017;-82
2022/06/06 04:49:09;;;;;;;5.03;2.72;;;;;;;;;;5035172;28;20021;-83
2022/06/06 04:51:36;;;;;;;7.13;3.30;;;;;;;;;;5036877;28;20083;-83
2022/06/06 04:54:03;;;;;;;5.32;3.00;;;;;;;;;;5036997;28;20033;-82
2022/06/06 04:56:29;;;;;;;5.78;3.08;;;;;;;;;;5019082;28;20114;-83
2022/06/06 04:58:57;;;;;;;6.38;3.55;;;;;;;;;;5018306;28;20061;-83
2022/06/06 05:01:24;;;;;;;5.28;3.72;;;;;;;;;;5037824;28;20041;-83
2022/06/06 05:03:50;;;;;;;5.72;3.08;;;;;;;;;;5073645;28;20096;-83
2022/06/06 05:06:24;;;;;;;5.95;3.60;;;;;;;;;;5061663;28;20056;-82
2022/06/06 05:08:59;;;;;;;6.80;3.50;;;;;;;;;;5061480;28;20115;-82
2022/06/06 05:11:48;;;;;;;5.82;3.30;;;;;;;;;;5073347;28;20029;-82
2022/06/06 05:14:35;;;;;;;7.60;4.00;;;;;;;;;;5064703;28;20045;-82
2022/06/06 05:17:01;;;;;;;7.63;4.00;;;;;;;;;;5080517;28;20055;-81
2022/06/06 05:19:30;;;;;;;7.10;4.30;;;;;;;;;;5068330;28;20396;-84
2022/06/06 05:22:22;;;;;;;8.13;3.95;;;;;;;;;;5065495;28;20547;-83
2022/06/06 05:24:55;;;;;;;8.05;4.57;;;;;;;;;;5054216;28;20037;-83
2022/06/06 05:27:30;;;;;;;7.07;4.50;;;;;;;;;;5049537;28;20025;-85
2022/06/06 05:30:02;;;;;;;6.85;4.25;;;;;;;;;;5044853;28;20056;-83
2022/06/06 05:32:29;;;;;;;7.93;4.82;;;;;;;;;;5044651;28;20026;-84
2022/06/06 05:34:57;;;;;;;7.05;4.45;;;;;;;;;;5034754;28;20025;-83
2022/06/06 05:37:23;;;;;;;6.97;4.10;;;;;;;;;;5056674;28;20423;-83
2022/06/06 05:39:49;;;;;;;6.57;3.78;;;;;;;;;;5046455;28;20188;-84
2022/06/06 05:42:18;;;;;;;5.88;3.90;;;;;;;;;;5047486;28;20033;-84
2022/06/06 05:44:50;;;;;;;7.40;4.28;;;;;;;;;;5064313;28;20465;-85
2022/06/06 05:47:31;;;;;;;6.37;4.47;;;;;;;;;;5065128;28;20061;-85
2022/06/06 05:50:16;;;;;;;6.75;4.22;;;;;;;;;;5064930;28;20294;-83
2022/06/06 05:52:42;;;;;;;5.75;3.70;;;;;;;;;;5064235;28;20044;-84
2022/06/06 05:55:08;;;;;;;6.93;4.13;;;;;;;;;;5036403;28;20041;-87
2022/06/06 05:57:52;;;;;;;8.32;4.38;;;;;;;;;;5062050;28;20055;-85
2022/06/06 06:00:25;;;;;;;7.20;4.28;;;;;;;;;;5034361;28;20546;-86
2022/06/06 06:02:54;;;;;;;6.55;4.47;;;;;;;;;;5072096;28;20032;-85
2022/06/06 06:05:23;;;;;;;8.02;5.05;;;;;;;;;;5087195;28;20025;-85
2022/06/06 06:08:09;;;;;;;6.82;4.32;;;;;;;;;;5090097;28;20016;-85
2022/06/06 06:10:53;;;;;;;6.18;4.20;;;;;;;;;;5080235;28;20033;-85
2022/06/06 06:13:36;;;;;;;7.10;4.38;;;;;;;;;;5082051;28;20016;-87
2022/06/06 06:16:03;;;;;;;5.95;3.97;;;;;;;;;;5074050;28;20028;-86
2022/06/06 06:18:40;;;;;;;7.70;4.68;;;;;;;;;;5078313;28;20452;-87
2022/06/06 06:21:18;;;;;;;6.03;4.40;;;;;;;;;;5088168;28;20042;-86
2022/06/06 06:23:48;;;;;;;8.25;5.00;;;;;;;;;;5081327;28;20020;-86
2022/06/06 06:26:14;;;;;;;6.55;5.03;;;;;;;;;;5090524;28;20028;-85
2022/06/06 06:28:41;;;;;;;7.10;4.53;;;;;;;;;;5082470;28;20020;-86
2022/06/06 06:31:07;;;;;;;7.38;4.90;;;;;;;;;;5082982;28;20047;-87
2022/06/06 06:33:33;;;;;;;7.00;4.80;;;;;;;;;;5072731;28;20040;-85
2022/06/06 06:36:08;;;;;;;7.53;4.95;;;;;;;;;;5085282;28;20104;-85
2022/06/06 06:38:50;;;;;;;7.50;4.80;;;;;;;;;;5084843;28;20496;-84
2022/06/06 06:41:28;;;;;;;6.32;4.63;;;;;;;;;;5089906;28;20021;-86
2022/06/06 06:43:58;;;;;;;6.68;4.55;;;;;;;;;;5086471;28;20040;-84
2022/06/06 06:46:28;;;;;;;8.55;4.80;;;;;;;;;;5088944;28;20016;-84
2022/06/06 06:49:01;;;;;;;6.38;4.70;;;;;;;;;;5087641;28;20021;-84
2022/06/06 06:51:27;;;;;;;;;;;;;;;;;;5076129;28;20037;-85
2022/06/06 06:54:02;;;;;;;7.10;4.57;;;;;;;;;;5068994;28;19908;-84
2022/06/06 06:56:47;;;;;;;6.80;4.75;;;;;;;;;;5074348;28;20278;-83
2022/06/06 06:59:18;;;;;;;7.82;5.30;;;;;;;;;;5078299;28;20080;-81
2022/06/06 07:10:46;;;;;;;7.38;4.68;;;;;;;;;;5081946;28;20075;-82
2022/06/06 07:13:15;;;;;;;7.72;4.20;;;;;;;;;;5073799;28;20033;-80
2022/06/06 07:15:46;;;;;;;6.35;4.35;;;;;;;;;;5071972;28;20039;-83
2022/06/06 07:18:14;;;;;;;6.57;4.10;;;;;;;;;;5075859;28;20025;-81
2022/06/06 07:20:44;;;;;;;6.40;4.43;;;;;;;;;;5069985;28;20029;-78
2022/06/06 07:23:11;;;;;;;8.77;4.40;;;;;;;;;;5070938;28;20040;-81
2022/06/06 07:25:38;;;;;;;6.07;4.20;;;;;;;;;;5077350;28;20172;-78
2022/06/06 07:28:07;;;;;;;5.53;3.75;;;;;;;;;;5078148;28;20028;-79
2022/06/06 07:30:36;;;;;;;6.32;4.43;;;;;;;;;;5081377;28;20478;-83
2022/06/06 07:33:02;;;;;;;6.05;4.25;;;;;;;;;;5088334;28;20020;-81
2022/06/06 07:35:47;;;;;;;5.25;3.95;;;;;;;;;;5081091;28;20033;-83
2022/06/06 07:38:21;;;;;;;5.60;4.20;;;;;;;;;;5084239;28;20023;-81
2022/06/06 07:41:19;;;;;;;6.13;4.30;;;;;;;;;;5078884;28;20064;-82
2022/06/06 07:43:52;;;;;;;5.60;3.85;;;;;;;;;;5045981;28;20049;-82
2022/06/06 07:46:38;;;;;;;5.65;3.78;;;;;;;;;;5030571;28;20036;-81
2022/06/06 07:49:09;;;;;;;8.07;4.55;;;;;;;;;;5034835;28;20061;-82
2022/06/06 07:51:36;;;;;;;6.53;3.95;;;;;;;;;;5030042;28;20049;-83
2022/06/06 07:54:14;;;;;;;6.30;4.18;;;;;;;;;;5043426;28;20037;-82
2022/06/06 07:56:45;;;;;;;6.65;4.20;;;;;;;;;;5048406;28;20056;-83
2022/06/06 07:59:20;;;;;;;6.68;3.70;;;;;;;;;;5030924;28;20049;-82
2022/06/06 08:01:52;;;;;;;5.75;3.88;;;;;;;;;;5039583;28;20126;-83
2022/06/06 08:04:26;;;;;;;6.15;4.30;;;;;;;;;;5036265;28;20038;-83
2022/06/06 08:07:11;;;;;;;6.47;4.25;;;;;;;;;;5027128;28;20041;-84
2022/06/06 08:09:53;;;;;;;8.50;4.53;;;;;;;;;;5027070;28;20065;-83
2022/06/06 08:12:37;;;;;;;6.17;4.13;;;;;;;;;;5040225;28;20112;-81
2022/06/06 08:15:14;;;;;;;5.40;4.07;;;;;;;;;;5044391;28;20125;-84
2022/06/06 08:17:42;;;;;;;6.15;4.50;;;;;;;;;;5043791;28;20022;-84
2022/06/06 08:20:27;;;;;;;7.05;4.40;;;;;;;;;;5081434;28;20069;-85
2022/06/06 08:22:56;;;;;;;5.60;3.97;;;;;;;;;;5087850;28;20020;-85
2022/06/06 08:25:23;;;;;;;7.00;4.05;;;;;;;;;;5079255;28;20024;-85
2022/06/06 08:27:51;;;;;;;5.38;3.97;;;;;;;;;;5082853;28;20090;-86
2022/06/06 08:30:17;;;;;;;5.82;3.80;;;;;;;;;;5080682;28;20037;-84
2022/06/06 08:32:43;;;;;;;5.40;3.63;;;;;;;;;;5064489;28;20469;-85
2022/06/06 08:35:10;;;;;;;6.57;4.00;;;;;;;;;;5060741;28;20071;-85
2022/06/06 08:37:52;;;;;;;5.40;4.00;;;;;;;;;;5059214;28;20058;-85
2022/06/06 08:40:28;;;;;;;5.97;4.07;;;;;;;;;;5058638;28;20028;-86
2022/06/06 08:42:54;;;;;;;5.15;3.67;;;;;;;;;;5059253;28;20634;-85
2022/06/06 08:45:22;;;;;;;6.07;4.05;;;;;;;;;;5082097;28;20052;-84
2022/06/06 08:47:59;;;;;;;5.68;3.72;;;;;;;;;;5067291;28;20025;-85
2022/06/06 08:50:46;;;;;;;4.80;3.55;;;;;;;;;;5076269;28;20021;-85
2022/06/06 08:53:12;;;;;;;5.30;3.70;;;;;;;;;;5069955;28;20462;-84
2022/06/06 08:55:51;;;;;;;6.45;4.00;;;;;;;;;;5060290;28;20041;-85
2022/06/06 08:58:36;;;;;;;7.25;5.05;;;;;;;;;;5082316;28;20058;-86
2022/06/06 09:01:14;;;;;;;5.90;4.10;;;;;;;;;;5078264;28;20488;-86
2022/06/06 09:04:03;;;;;;;6.88;4.20;;;;;;;;;;5060961;28;20035;-85
2022/06/06 09:06:45;;;;;;;5.88;3.70;;;;;;;;;;5062853;28;20032;-85
2022/06/06 09:09:29;;;;;;;5.70;4.18;;;;;;;;;;5068366;28;20028;-86
2022/06/06 09:11:59;;;;;;;5.32;3.90;;;;;;;;;;5071214;28;20019;-84
2022/06/06 09:14:34;;;;;;;5.75;3.97;;;;;;;;;;5071471;28;20070;-85
2022/06/06 09:17:16;;;;;;;5.95;3.75;;;;;;;;;;5073095;28;20032;-86
2022/06/06 09:19:45;;;;;;;5.68;3.47;;;;;;;;;;5075616;28;20047;-84
2022/06/06 09:22:34;;;;;;;5.47;3.83;;;;;;;;;;5069651;28;20096;-83
2022/06/06 09:25:14;;;;;;;5.53;3.90;;;;;;;;;;5069651;28;20036;-86
2022/06/06 09:27:59;;;;;;;6.45;3.83;;;;;;;;;;5058528;28;20025;-85
2022/06/06 09:30:25;;;;;;;5.30;3.80;;;;;;;;;;5070655;28;20108;-83
2022/06/06 09:33:13;;;;;;;5.38;3.90;;;;;;;;;;5066405;28;20079;-84
2022/06/06 09:35:45;;;;;;;5.07;3.75;;;;;;;;;;5059453;28;20116;-85
2022/06/06 09:38:47;;;;;;;4.90;3.72;;;;;;;;;;5065319;28;20020;-85
2022/06/06 09:41:31;;;;;;;5.95;3.80;;;;;;;;;;5020468;28;20093;-85
2022/06/06 09:44:16;;;;;;;4.65;3.28;;;;;;;;;;5077020;28;20044;-85
2022/06/06 09:46:42;;;;;;;6.43;3.75;;;;;;;;;;5083794;28;20021;-85
2022/06/06 09:49:08;;;;;;;6.43;3.45;;;;;;;;;;5072258;28;20097;-85
2022/06/06 09:51:57;;;;;;;5.47;3.88;;;;;;;;;;5060889;28;20028;-85
2022/06/06 10:00:46;;;;;;;6.30;3.88;;;;;;;;;;5065262;28;20044;-85
2022/06/06 10:03:34;;;;;;;5.50;3.50;;;;;;;;;;5063224;28;20029;-86
2022/06/06 10:06:06;;;;;;;5.47;3.72;;;;;;;;;;5079415;28;20075;-85
2022/06/06 10:08:43;;;;;;;5.40;3.40;;;;;;;;;;5073778;28;20024;-83
2022/06/06 10:11:28;;;;;;;5.63;3.40;;;;;;;;;;5081321;28;20445;-86
2022/06/06 10:13:54;;;;;;;5.57;3.67;;;;;;;;;;5082559;28;20025;-85
2022/06/06 10:16:20;;;;;;;4.38;3.03;;;;;;;;;;5068930;28;20045;-85
2022/06/06 10:18:55;;;;;;;5.15;3.55;;;;;;;;;;5059740;28;20039;-85
2022/06/06 10:21:36;;;;;;;4.90;3.47;;;;;;;;;;5072121;28;20028;-85
2022/06/06 10:24:09;;;;;;;4.95;3.22;;;;;;;;;;5074861;28;20060;-85
2022/06/06 10:26:47;;;;;;;5.03;3.47;;;;;;;;;;5062233;28;20029;-85
2022/06/06 10:29:16;;;;;;;4.57;3.20;;;;;;;;;;5073515;28;20051;-85
2022/06/06 10:31:48;;;;;;;5.25;2.95;;;;;;;;;;5081771;28;20075;-85
2022/06/06 10:34:17;;;;;;;5.57;3.05;;;;;;;;;;5081300;28;20084;-85
2022/06/06 10:37:01;;;;;;;4.95;3.10;;;;;;;;;;5085460;28;20032;-85
2022/06/06 10:39:49;;;;;;;4.88;3.35;;;;;;;;;;5087145;28;20028;-85
2022/06/06 10:42:18;;;;;;;5.78;3.50;;;;;;;;;;5066185;28;20029;-85
2022/06/06 10:45:03;;;;;;;4.57;3.05;;;;;;;;;;5076566;28;20510;-85
2022/06/06 10:47:35;;;;;;;4.82;2.90;;;;;;;;;;5075621;28;20025;-85
2022/06/06 10:50:07;;;;;;;5.28;3.40;;;;;;;;;;5073264;28;20938;-85
2022/06/06 10:52:40;;;;;;;5.05;3.13;;;;;;;;;;5090552;28;20028;-85
2022/06/06 10:55:05;;;;;;;;;;;;;;;;;;5066363;28;20052;-84
2022/06/06 10:57:51;;;;;;;4.57;3.17;;;;;;;;;;5074817;28;19909;-82
2022/06/06 11:00:18;;;;;;;4.93;3.28;;;;;;;;;;5080100;28;20070;-84
2022/06/06 11:02:47;;;;;;;5.65;3.75;;;;;;;;;;5089804;28;20059;-85
2022/06/06 11:05:32;;;;;;;4.95;3.78;;;;;;;;;;5082171;28;20024;-83
2022/06/06 11:08:08;;;;;;;5.65;3.55;;;;;;;;;;5092611;28;20039;-85
2022/06/06 11:10:53;;;;;;;6.20;3.70;;;;;;;;;;5093261;28;20557;-84
2022/06/06 11:13:22;;;;;;;6.55;4.03;;;;;;;;;;5090720;28;20411;-84
2022/06/06 11:16:08;;;;;;;5.35;3.90;;;;;;;;;;5089515;28;20088;-84
2022/06/06 11:18:51;;;;;;;6.50;3.85;;;;;;;;;;5064772;28;20044;-84
2022/06/06 11:21:23;;;;;;;4.70;3.28;;;;;;;;;;5084114;28;20031;-84
2022/06/06 11:23:57;;;;;;;4.80;3.22;;;;;;;;;;5073718;28;20021;-84
2022/06/06 11:26:23;;;;;;;4.43;2.95;;;;;;;;;;5079902;28;20000;-84
2022/06/06 11:28:52;;;;;;;5.10;3.20;;;;;;;;;;5086806;28;20040;-85
2022/06/06 11:31:36;;;;;;;4.93;3.35;;;;;;;;;;5090405;28;20020;-83
2022/06/06 11:34:05;;;;;;;4.70;3.08;;;;;;;;;;5078687;28;20009;-84
2022/06/06 11:36:31;;;;;;;4.65;3.22;;;;;;;;;;5069631;28;20032;-85
2022/06/06 11:39:15;;;;;;;4.78;3.30;;;;;;;;;;5065374;28;20112;-84
2022/06/06 11:41:54;;;;;;;5.70;4.00;;;;;;;;;;5066684;28;20064;-84
2022/06/06 11:44:32;;;;;;;5.88;3.25;;;;;;;;;;5071064;28;20032;-84
2022/06/06 11:47:16;;;;;;;4.68;3.15;;;;;;;;;;5078200;28;20029;-83
2022/06/06 11:50:01;;;;;;;4.30;3.30;;;;;;;;;;5078726;28;20033;-85
2022/06/06 11:52:56;;;;;;;5.60;4.00;;;;;;;;;;5092502;28;20032;-84
2022/06/06 11:55:41;;;;;;;4.85;3.65;;;;;;;;;;5066016;28;20028;-82
2022/06/06 11:58:26;;;;;;;6.13;3.47;;;;;;;;;;5089395;28;20439;-81
2022/06/06 12:01:11;;;;;;;5.38;3.47;;;;;;;;;;5087759;28;20025;-84
2022/06/06 12:03:37;;;;;;;5.32;3.47;;;;;;;;;;5073443;28;20024;-82
2022/06/06 12:06:22;;;;;;;5.00;3.40;;;;;;;;;;5067351;28;20032;-83
2022/06/06 12:09:03;;;;;;;5.03;3.05;;;;;;;;;;5072568;28;20480;-81
2022/06/06 12:11:35;;;;;;;4.45;3.20;;;;;;;;;;5086203;28;20255;-83
2022/06/06 12:14:05;;;;;;;5.35;3.00;;;;;;;;;;5083653;28;20049;-81
2022/06/06 12:16:53;;;;;;;4.30;3.13;;;;;;;;;;5089699;28;20048;-83
2022/06/06 12:19:28;;;;;;;4.97;3.05;;;;;;;;;;5079631;28;20027;-82
2022/06/06 12:22:01;;;;;;;4.57;3.03;;;;;;;;;;5073137;28;20029;-81
2022/06/06 12:24:49;;;;;;;4.57;3.08;;;;;;;;;;5082160;28;20550;-82
2022/06/06 12:27:20;;;;;;;5.07;2.90;;;;;;;;;;5090918;28;20035;-82
2022/06/06 12:30:01;;;;;;;5.13;3.00;;;;;;;;;;5074449;28;20028;-82
2022/06/06 12:32:46;;;;;;;4.78;2.90;;;;;;;;;;5078798;28;20028;-82
2022/06/06 12:35:16;;;;;;;4.22;2.90;;;;;;;;;;5089517;28;20468;-82
2022/06/06 12:37:52;;;;;;;5.55;3.33;;;;;;;;;;5083394;28;20029;-83
2022/06/06 12:40:18;;;;;;;4.70;2.95;;;;;;;;;;5086475;28;20024;-82
2022/06/06 12:43:03;;;;;;;4.85;3.40;;;;;;;;;;5086347;28;20032;-82
2022/06/06 12:45:39;;;;;;;4.88;3.35;;;;;;;;;;5080102;28;20119;-82
2022/06/06 12:48:41;;;;;;;4.70;3.03;;;;;;;;;;5088748;28;20009;-81
2022/06/06 12:51:13;;;;;;;4.50;2.90;;;;;;;;;;5027868;28;20017;-82
2022/06/06 12:53:57;;;;;;;5.20;3.30;;;;;;;;;;5026918;28;20033;-82
2022/06/06 12:56:37;;;;;;;4.60;3.10;;;;;;;;;;5026950;28;20068;-81
2022/06/06 12:59:06;;;;;;;5.32;3.20;;;;;;;;;;5050521;28;20063;-83
2022/06/06 13:01:38;;;;;;;5.72;3.58;;;;;;;;;;5045125;28;20404;-82
2022/06/06 13:04:09;;;;;;;4.93;3.07;;;;;;;;;;5031942;28;20624;-81
2022/06/06 13:06:54;;;;;;;4.40;2.97;;;;;;;;;;5012535;28;20265;-83
2022/06/06 13:09:23;;;;;;;4.82;3.30;;;;;;;;;;5032920;28;20020;-84
2022/06/06 13:11:58;;;;;;;4.82;3.03;;;;;;;;;;5034679;28;20049;-81
2022/06/06 13:14:33;;;;;;;5.75;3.63;;;;;;;;;;5026806;28;20026;-83
2022/06/06 13:17:06;;;;;;;4.45;2.95;;;;;;;;;;5001753;28;20050;-82
2022/06/06 13:19:48;;;;;;;5.70;3.30;;;;;;;;;;5021351;28;20040;-82
2022/06/06 13:22:35;;;;;;;4.20;2.80;;;;;;;;;;5047582;28;20077;-81
2022/06/06 13:25:04;;;;;;;5.63;3.28;;;;;;;;;;5054411;28;20037;-81
2022/06/06 13:27:49;;;;;;;5.15;3.17;;;;;;;;;;5074423;28;20028;-82
2022/06/06 13:30:20;;;;;;;4.45;2.90;;;;;;;;;;5091768;28;20052;-82
2022/06/06 13:32:46;;;;;;;5.15;3.17;;;;;;;;;;5080897;28;20056;-82
2022/06/06 13:35:16;;;;;;;6.05;3.08;;;;;;;;;;5085719;28;20025;-82
2022/06/06 13:37:45;;;;;;;4.85;2.97;;;;;;;;;;5072683;28;20029;-85
2022/06/06 13:40:22;;;;;;;6.80;3.30;;;;;;;;;;5072436;28;20088;-82
2022/06/06 13:43:06;;;;;;;4.47;3.05;;;;;;;;;;5079805;28;20174;-81
2022/06/06 13:45:40;;;;;;;4.57;3.10;;;;;;;;;;5087439;28;20080;-82
2022/06/06 13:48:12;;;;;;;4.68;3.25;;;;;;;;;;5082546;28;20035;-82
2022/06/06 13:50:53;;;;;;;4.80;3.10;;;;;;;;;;5076128;28;20025;-82
2022/06/06 13:53:25;;;;;;;4.80;3.00;;;;;;;;;;5085305;28;20131;-80
2022/06/06 13:56:11;;;;;;;5.07;3.08;;;;;;;;;;5086046;28;20042;-81
2022/06/06 13:58:37;;;;;;;4.78;2.90;;;;;;;;;;5057064;28;20119;-82
2022/06/06 14:01:23;;;;;;;5.65;3.08;;;;;;;;;;5078936;28;20063;-82
2022/06/06 14:03:49;;;;;;;5.20;3.10;;;;;;;;;;5076324;28;20025;-81
2022/06/06 14:06:24;;;;;;;4.90;3.10;;;;;;;;;;5071206;28;20046;-81
2022/06/06 14:08:52;;;;;;;5.10;2.95;;;;;;;;;;5079647;28;20024;-83
2022/06/06 14:11:26;;;;;;;4.40;2.97;;;;;;;;;;5080613;28;20043;-82
2022/06/06 14:13:59;;;;;;;5.13;2.95;;;;;;;;;;5069220;28;20021;-82
2022/06/06 14:16:28;;;;;;;4.57;2.85;;;;;;;;;;5066105;28;20078;-82
2022/06/06 14:18:57;;;;;;;4.35;3.05;;;;;;;;;;5064265;28;20025;-82
2022/06/06 14:21:25;;;;;;;4.70;3.00;;;;;;;;;;5066170;28;20025;-82
2022/06/06 14:23:51;;;;;;;5.05;2.90;;;;;;;;;;5071245;28;20740;-82
2022/06/06 14:26:21;;;;;;;4.70;3.22;;;;;;;;;;5073799;28;20037;-83
2022/06/06 14:29:01;;;;;;;4.78;3.22;;;;;;;;;;5070094;28;20025;-82
2022/06/06 14:31:42;;;;;;;5.95;3.10;;;;;;;;;;5077720;28;20032;-83
2022/06/06 14:34:31;;;;;;;4.68;3.30;;;;;;;;;;5071252;28;20240;-83
2022/06/06 14:37:05;;;;;;;7.60;3.58;;;;;;;;;;5067497;28;20029;-83
2022/06/06 14:39:32;;;;;;;5.13;3.50;;;;;;;;;;5083282;28;20046;-83
2022/06/06 14:41:58;;;;;;;4.75;3.13;;;;;;;;;;5078309;28;20025;-83
2022/06/06 14:44:34;;;;;;;4.50;3.10;;;;;;;;;;5064351;28;20029;-83
2022/06/06 14:47:20;;;;;;;4.30;3.10;;;;;;;;;;5075640;28;20059;-83
2022/06/06 14:50:45;;;;;;;5.38;3.30;;;;;;;;;;5082151;28;20052;-83
2022/06/06 14:52:35;;;;;;;4.30;3.00;;;;;;;;;;5079725;28;20032;-83
2022/06/06 14:55:02;;;;;;;4.53;2.90;;;;;;;;;;5077758;28;20017;-83
2022/06/06 14:57:30;;;;;;;4.72;2.92;;;;;;;;;;5065999;28;20643;-83
2022/06/06 14:59:58;;;;;;;4.50;2.90;;;;;;;;;;5075303;28;20035;-83
2022/06/06 15:02:28;;;;;;;4.10;2.83;;;;;;;;;;5077456;28;20025;-83
2022/06/06 15:05:14;;;;;;;5.15;3.03;;;;;;;;;;5079490;28;20025;-83
2022/06/06 15:07:47;;;;;;;4.47;2.83;;;;;;;;;;5069421;28;20017;-84
2022/06/06 15:10:28;;;;;;;4.70;3.00;;;;;;;;;;5075248;28;20039;-83
2022/06/06 15:12:55;;;;;;;4.07;2.83;;;;;;;;;;5079389;28;20048;-83
2022/06/06 15:15:22;;;;;;;4.85;3.17;;;;;;;;;;5068645;28;20026;-83
2022/06/06 15:17:50;;;;;;;4.57;2.85;;;;;;;;;;5075630;28;20017;-83
2022/06/06 15:20:16;;;;;;;5.80;3.40;;;;;;;;;;5083338;28;20145;-83
2022/06/06 15:22:44;;;;;;;5.05;3.10;;;;;;;;;;5081921;28;20032;-83
2022/06/06 15:25:21;;;;;;;4.20;2.90;;;;;;;;;;5086239;28;20092;-83
2022/06/06 15:27:47;;;;;;;4.60;3.30;;;;;;;;;;5085764;28;20559;-83
2022/06/06 15:30:33;;;;;;;5.38;3.50;;;;;;;;;;5085099;28;20040;-83
2022/06/06 15:33:09;;;;;;;5.53;3.20;;;;;;;;;;5056167;28;20056;-83
2022/06/06 15:35:38;;;;;;;5.60;3.35;;;;;;;;;;5085705;28;20088;-83
2022/06/06 15:38:04;;;;;;;5.43;3.00;;;;;;;;;;5090336;28;20025;-83
2022/06/06 15:40:36;;;;;;;4.93;3.50;;;;;;;;;;5091840;28;20031;-83
2022/06/06 15:43:02;;;;;;;4.50;3.22;;;;;;;;;;5091969;28;20032;-83
2022/06/06 15:45:34;;;;;;;4.60;3.25;;;;;;;;;;5087550;28;20036;-83